createdAt,value
2022-11-29T00:00:55.374Z,78228.47
2022-11-29T00:03:21.808Z,78224.50
2022-11-29T00:05:48.252Z,78210.56
2022-11-29T00:08:14.608Z,78216.53
2022-11-29T00:10:41.011Z,78208.59
2022-11-29T00:13:07.428Z,78216.53
2022-11-29T00:15:38.291Z,78210.56
2022-11-29T00:18:05.952Z,78196.66
2022-11-29T00:20:34.379Z,78206.59
2022-11-29T00:23:01.573Z,78216.53
2022-11-29T00:25:28.115Z,78228.47
2022-11-29T00:27:54.491Z,78204.59
2022-11-29T00:30:21.040Z,78204.59
2022-11-29T00:32:47.528Z,78220.50
2022-11-29T00:35:14.273Z,78204.59
2022-11-29T00:37:40.658Z,78208.59
2022-11-29T00:40:07.794Z,78224.50
2022-11-29T00:42:34.162Z,78240.41
2022-11-29T00:45:00.520Z,78232.44
2022-11-29T00:47:26.899Z,78234.44
2022-11-29T00:49:53.317Z,78252.31
2022-11-29T00:52:19.665Z,78250.34
2022-11-29T00:54:46.175Z,78240.41
2022-11-29T00:57:12.805Z,78230.44
2022-11-29T00:59:39.230Z,78234.44
2022-11-29T01:02:05.673Z,78226.47
2022-11-29T01:04:32.129Z,78232.44
2022-11-29T01:06:58.483Z,78224.50
2022-11-29T01:09:24.852Z,78232.44
2022-11-29T01:11:51.220Z,78222.50
2022-11-29T01:14:17.605Z,78234.44
2022-11-29T01:16:44.021Z,78222.50
2022-11-29T01:19:10.768Z,78226.47
2022-11-29T01:21:37.557Z,78248.34
2022-11-29T01:24:04.192Z,78238.41
2022-11-29T01:26:31.851Z,78252.31
2022-11-29T01:28:59.124Z,78228.47
2022-11-29T01:31:31.659Z,78232.44
2022-11-29T01:34:01.526Z,78242.38
2022-11-29T01:36:28.195Z,78242.38
2022-11-29T01:41:28.328Z,78230.44
2022-11-29T01:43:59.407Z,78238.41
2022-11-29T01:46:28.094Z,78228.47
2022-11-29T01:48:58.979Z,78226.47
2022-11-29T01:51:26.628Z,78238.41
2022-11-29T01:53:54.219Z,78226.47
2022-11-29T01:56:21.392Z,78214.53
2022-11-29T01:58:47.783Z,78218.53
2022-11-29T02:01:14.584Z,78218.53
2022-11-29T02:03:41.077Z,78210.56
2022-11-29T02:06:07.907Z,78216.53
2022-11-29T02:08:41.118Z,78216.53
2022-11-29T02:11:25.575Z,78212.56
2022-11-29T02:14:15.348Z,78210.56
2022-11-29T02:17:08.491Z,78212.56
2022-11-29T02:20:06.250Z,78198.66
2022-11-29T02:22:56.154Z,78230.44
2022-11-29T02:25:54.861Z,78234.44
2022-11-29T02:28:56.795Z,78226.47
2022-11-29T02:31:29.111Z,78206.59
2022-11-29T02:34:04.465Z,78212.56
2022-11-29T02:37:08.656Z,78210.56
2022-11-29T02:39:56.711Z,78216.53
2022-11-29T02:42:56.180Z,78214.53
2022-11-29T02:45:40.651Z,78210.56
2022-11-29T02:48:22.383Z,78206.59
2022-11-29T02:51:14.931Z,78214.53
2022-11-29T02:53:52.069Z,78214.53
2022-11-29T02:56:46.454Z,78232.44
2022-11-29T02:59:39.903Z,78238.41
2022-11-29T03:02:16.575Z,78236.41
2022-11-29T03:04:58.320Z,78228.47
2022-11-29T03:08:02.196Z,78250.34
2022-11-29T03:11:06.809Z,78228.47
2022-11-29T03:13:57.932Z,78260.28
2022-11-29T03:16:43.054Z,78240.41
2022-11-29T03:19:28.686Z,78250.34
2022-11-29T03:22:11.892Z,78236.41
2022-11-29T03:25:08.979Z,78246.34
2022-11-29T03:27:46.155Z,78244.38
2022-11-29T03:30:14.816Z,78234.44
2022-11-29T03:33:12.896Z,78246.34
2022-11-29T03:35:59.511Z,78230.44
2022-11-29T03:38:47.349Z,78230.44
2022-11-29T03:41:28.229Z,78240.41
2022-11-29T03:44:05.230Z,78240.41
2022-11-29T03:46:38.016Z,78248.34
2022-11-29T03:49:13.246Z,78248.34
2022-11-29T03:52:17.235Z,78246.34
2022-11-29T03:55:19.142Z,78242.38
2022-11-29T03:58:04.768Z,78244.38
2022-11-29T04:00:45.410Z,78226.47
2022-11-29T04:03:50.501Z,78228.47
2022-11-29T04:07:07.079Z,78242.38
2022-11-29T04:09:52.033Z,78248.34
2022-11-29T04:12:18.343Z,78248.34
2022-11-29T04:15:15.876Z,78246.34
2022-11-29T04:18:06.983Z,78248.34
2022-11-29T04:20:55.318Z,78248.34
2022-11-29T04:23:36.919Z,78244.38
2022-11-29T04:26:24.755Z,78240.41
2022-11-29T04:29:15.968Z,78234.44
2022-11-29T04:32:01.310Z,78240.41
2022-11-29T04:34:56.113Z,78248.34
2022-11-29T04:37:54.819Z,78246.34
2022-11-29T04:40:43.912Z,78258.28
2022-11-29T04:43:59.140Z,78248.34
2022-11-29T04:46:40.478Z,78244.38
2022-11-29T04:49:34.803Z,78256.28
2022-11-29T04:52:27.218Z,78264.25
2022-11-29T04:55:10.937Z,78252.31
2022-11-29T04:57:47.410Z,78254.31
2022-11-29T05:00:20.902Z,78272.19
2022-11-29T05:02:59.703Z,78264.25
2022-11-29T05:05:47.525Z,78258.28
2022-11-29T05:08:35.229Z,78266.25
2022-11-29T05:11:26.731Z,78268.22
2022-11-29T05:14:08.755Z,78278.16
2022-11-29T05:16:48.887Z,78288.09
2022-11-29T05:19:34.044Z,78262.25
2022-11-29T05:22:18.796Z,78270.22
2022-11-29T05:25:25.324Z,78288.09
2022-11-29T05:27:58.140Z,78272.19
2022-11-29T05:30:40.155Z,78270.22
2022-11-29T05:33:38.268Z,78296.06
2022-11-29T05:36:39.890Z,78304.00
2022-11-29T05:39:31.297Z,78298.06
2022-11-29T05:42:45.866Z,78298.06
2022-11-29T05:45:21.043Z,78296.06
2022-11-29T05:47:58.939Z,78308.00
2022-11-29T05:50:44.490Z,78315.94
2022-11-29T05:53:32.664Z,78304.00
2022-11-29T05:56:13.965Z,78304.00
2022-11-29T05:59:07.963Z,78296.06
2022-11-29T06:01:52.351Z,78280.16
2022-11-29T06:04:57.202Z,78294.06
2022-11-29T06:07:33.180Z,78313.94
2022-11-29T06:10:05.068Z,78335.81
2022-11-29T06:12:35.939Z,78317.94
2022-11-29T06:15:28.400Z,78323.91
2022-11-29T06:18:03.166Z,78327.88
2022-11-29T06:20:35.427Z,78319.91
2022-11-29T06:23:24.063Z,78298.06
2022-11-29T06:26:25.194Z,78288.09
2022-11-29T06:29:24.027Z,78308.00
2022-11-29T06:32:08.276Z,78311.97
2022-11-29T06:34:45.217Z,78300.03
2022-11-29T06:37:22.983Z,78327.88
2022-11-29T06:39:49.581Z,78329.84
2022-11-29T06:42:16.220Z,78335.81
2022-11-29T06:44:43.063Z,78337.81
2022-11-29T06:47:51.712Z,78335.81
2022-11-29T06:51:15.796Z,78341.78
2022-11-29T06:53:56.499Z,78331.84
2022-11-29T06:56:29.541Z,78335.81
2022-11-29T06:59:13.894Z,78337.81
2022-11-29T07:01:47.834Z,78331.84
2022-11-29T07:05:01.333Z,78335.81
2022-11-29T07:07:28.064Z,78331.84
2022-11-29T07:10:00.093Z,78335.81
2022-11-29T07:12:26.831Z,78339.81
2022-11-29T07:14:53.507Z,78339.81
2022-11-29T07:17:22.838Z,78339.81
2022-11-29T07:19:57.454Z,78337.81
2022-11-29T07:22:36.494Z,78329.84
2022-11-29T07:25:29.843Z,78329.84
2022-11-29T07:28:26.071Z,78345.75
2022-11-29T07:31:02.800Z,78337.81
2022-11-29T07:34:02.895Z,78333.84
2022-11-29T07:36:50.326Z,78331.84
2022-11-29T07:39:44.011Z,78323.91
2022-11-29T07:42:23.185Z,78317.94
2022-11-29T07:45:14.435Z,78327.88
2022-11-29T07:47:41.035Z,78325.88
2022-11-29T07:50:07.906Z,78315.94
2022-11-29T07:52:34.551Z,78319.91
2022-11-29T07:55:02.119Z,78329.84
2022-11-29T07:57:28.467Z,78335.81
2022-11-29T07:59:54.824Z,78313.94
2022-11-29T08:02:31.807Z,78315.94
2022-11-29T08:04:58.603Z,78286.13
2022-11-29T08:07:25.484Z,78292.09
2022-11-29T08:09:51.963Z,78276.19
2022-11-29T08:12:18.477Z,78252.31
2022-11-29T08:14:45.174Z,78252.31
2022-11-29T08:17:11.721Z,78238.41
2022-11-29T08:19:38.102Z,78242.38
2022-11-29T08:22:04.554Z,78234.44
2022-11-29T08:24:31.103Z,78236.41
2022-11-29T08:26:57.608Z,78240.41
2022-11-29T08:29:23.959Z,78226.47
2022-11-29T08:31:53.398Z,78230.44
2022-11-29T08:34:20.891Z,78228.47
2022-11-29T08:36:47.328Z,78248.34
2022-11-29T08:39:13.694Z,78248.34
2022-11-29T08:41:40.110Z,78234.44
2022-11-29T08:44:06.585Z,78218.53
2022-11-29T08:46:51.659Z,78204.59
2022-11-29T08:49:18.144Z,78208.59
2022-11-29T08:51:44.598Z,78198.66
2022-11-29T08:54:12.227Z,78218.53
2022-11-29T08:59:24.942Z,78204.59
2022-11-29T09:01:51.365Z,78196.66
2022-11-29T09:04:17.822Z,78184.72
2022-11-29T09:06:44.413Z,78212.56
2022-11-29T09:09:10.765Z,78206.59
2022-11-29T09:11:37.196Z,78228.47
2022-11-29T09:14:06.816Z,78230.44
2022-11-29T09:16:37.400Z,78244.38
2022-11-29T09:19:05.398Z,78226.47
2022-11-29T09:21:34.767Z,78258.28
2022-11-29T09:24:06.331Z,78246.34
2022-11-29T09:26:34.816Z,78228.47
2022-11-29T09:29:03.235Z,78220.50
2022-11-29T09:31:31.109Z,78236.41
2022-11-29T09:33:58.273Z,78230.44
2022-11-29T09:36:28.871Z,78204.59
2022-11-29T09:38:55.909Z,78200.63
2022-11-29T09:41:51.756Z,78208.59
2022-11-29T09:44:27.508Z,78184.72
2022-11-29T09:47:04.225Z,78180.75
2022-11-29T09:49:53.161Z,78180.75
2022-11-29T09:52:25.635Z,78180.75
2022-11-29T09:55:01.860Z,78172.78
2022-11-29T09:57:31.296Z,78180.75
2022-11-29T10:00:02.033Z,78168.81
2022-11-29T10:02:37.220Z,78156.91
2022-11-29T10:05:13.679Z,78135.03
2022-11-29T10:07:46.117Z,78131.03
2022-11-29T10:10:22.322Z,78129.06
2022-11-29T10:12:55.172Z,78150.94
2022-11-29T10:15:27.269Z,78137.00
2022-11-29T10:18:05.109Z,78144.97
2022-11-29T10:20:43.514Z,78105.19
2022-11-29T10:23:29.787Z,78121.09
2022-11-29T10:25:57.805Z,78103.22
2022-11-29T10:28:27.392Z,78109.19
2022-11-29T10:30:55.444Z,78119.13
2022-11-29T10:33:26.888Z,78121.09
2022-11-29T10:35:57.864Z,78123.09
2022-11-29T10:38:32.350Z,78097.25
2022-11-29T10:41:06.293Z,78103.22
2022-11-29T10:43:32.710Z,78109.19
2022-11-29T10:46:00.236Z,78089.28
2022-11-29T10:48:31.690Z,78099.25
2022-11-29T10:50:58.735Z,78099.25
2022-11-29T10:53:27.646Z,78127.06
2022-11-29T10:56:16.302Z,78107.19
2022-11-29T10:58:57.992Z,78095.25
2022-11-29T11:01:26.373Z,78077.38
2022-11-29T11:03:54.853Z,78075.38
2022-11-29T11:06:26.415Z,78097.25
2022-11-29T11:09:11.075Z,78089.28
2022-11-29T11:11:38.711Z,78099.25
2022-11-29T11:14:20.519Z,78081.34
2022-11-29T11:16:46.994Z,78105.19
2022-11-29T11:19:32.940Z,78101.22
2022-11-29T11:22:01.850Z,78095.25
2022-11-29T11:24:31.710Z,78093.28
2022-11-29T11:26:58.943Z,78101.22
2022-11-29T11:29:33.835Z,78083.34
2022-11-29T11:32:00.731Z,78099.25
2022-11-29T11:34:36.591Z,78071.41
2022-11-29T11:37:15.041Z,78065.44
2022-11-29T11:39:42.855Z,78069.41
2022-11-29T11:42:34.758Z,78043.56
2022-11-29T11:45:03.315Z,78067.44
2022-11-29T11:47:32.742Z,78057.50
2022-11-29T11:50:02.324Z,78047.56
2022-11-29T11:52:54.278Z,78069.41
2022-11-29T11:55:40.465Z,78077.38
2022-11-29T11:58:13.024Z,78075.38
2022-11-29T12:03:48.411Z,78051.53
2022-11-29T12:06:30.043Z,78085.31
2022-11-29T12:09:18.581Z,78113.16
2022-11-29T12:12:01.291Z,78123.09
2022-11-29T12:14:55.779Z,78103.22
2022-11-29T12:17:49.014Z,78101.22
2022-11-29T12:20:19.196Z,78101.22
2022-11-29T12:22:59.035Z,78093.28
2022-11-29T12:25:44.656Z,78101.22
2022-11-29T12:28:20.659Z,78101.22
2022-11-29T12:31:38.704Z,78103.22
2022-11-29T12:34:53.162Z,78129.06
2022-11-29T12:37:45.409Z,78123.09
2022-11-29T12:40:24.004Z,78141.00
2022-11-29T12:43:15.316Z,78142.97
2022-11-29T12:45:53.748Z,78154.91
2022-11-29T12:48:48.963Z,78156.91
2022-11-29T12:51:23.229Z,78156.91
2022-11-29T12:54:17.611Z,78168.81
2022-11-29T12:56:49.263Z,78186.72
2022-11-29T12:59:48.162Z,78170.81
2022-11-29T13:02:28.811Z,78168.81
2022-11-29T13:05:04.469Z,78174.78
2022-11-29T13:07:47.354Z,78188.69
2022-11-29T13:10:35.651Z,78190.69
2022-11-29T13:13:29.133Z,78196.66
2022-11-29T13:16:13.585Z,78198.66
2022-11-29T13:19:11.358Z,78196.66
2022-11-29T13:22:10.171Z,78198.66
2022-11-29T13:24:46.274Z,78186.72
2022-11-29T13:27:18.204Z,78196.66
2022-11-29T13:29:45.460Z,78198.66
2022-11-29T13:32:36.725Z,78186.72
2022-11-29T13:35:43.775Z,78198.66
2022-11-29T13:38:19.013Z,78202.63
2022-11-29T13:40:52.552Z,78210.56
2022-11-29T13:43:32.281Z,78204.59
2022-11-29T13:46:16.382Z,78208.59
2022-11-29T13:48:51.887Z,78224.50
2022-11-29T13:51:27.982Z,78228.47
2022-11-29T13:53:56.461Z,78220.50
2022-11-29T13:56:46.250Z,78224.50
2022-11-29T13:59:18.387Z,78228.47
2022-11-29T14:01:51.303Z,78240.41
2022-11-29T14:04:24.133Z,78212.56
2022-11-29T14:07:01.069Z,78230.44
2022-11-29T14:09:39.796Z,78250.34
2022-11-29T14:12:41.651Z,78258.28
2022-11-29T14:15:11.113Z,78246.34
2022-11-29T14:18:02.819Z,78250.34
2022-11-29T14:20:29.142Z,78244.38
2022-11-29T14:23:04.376Z,78252.31
2022-11-29T14:25:51.524Z,78248.34
2022-11-29T14:28:21.585Z,78262.25
2022-11-29T14:30:58.552Z,78262.25
2022-11-29T14:33:25.241Z,78248.34
2022-11-29T14:36:18.980Z,78240.41
2022-11-29T14:39:10.223Z,78240.41
2022-11-29T14:41:45.780Z,78262.25
2022-11-29T14:44:20.192Z,78248.34
2022-11-29T14:46:48.513Z,78252.31
2022-11-29T14:49:22.910Z,78260.28
2022-11-29T14:52:13.441Z,78260.28
2022-11-29T14:55:09.306Z,78260.28
2022-11-29T14:57:50.769Z,78256.28
2022-11-29T15:00:32.462Z,78246.34
2022-11-29T15:03:03.370Z,78252.31
2022-11-29T15:05:34.509Z,78264.25
2022-11-29T15:08:35.373Z,78268.22
2022-11-29T15:11:05.724Z,78268.22
2022-11-29T15:13:36.734Z,78264.25
2022-11-29T15:16:28.820Z,78286.13
2022-11-29T15:19:21.459Z,78284.13
2022-11-29T15:22:17.461Z,78280.16
2022-11-29T15:24:56.825Z,78276.19
2022-11-29T15:27:24.322Z,78280.16
2022-11-29T15:29:52.287Z,78272.19
2022-11-29T15:32:32.442Z,78270.22
2022-11-29T15:34:59.375Z,78288.09
2022-11-29T15:37:39.767Z,78282.16
2022-11-29T15:40:18.398Z,78308.00
2022-11-29T15:42:48.410Z,78280.16
2022-11-29T15:45:35.741Z,78282.16
2022-11-29T15:48:28.616Z,78288.09
2022-11-29T15:51:32.829Z,78300.03
2022-11-29T15:54:12.701Z,78308.00
2022-11-29T15:56:45.676Z,78313.94
2022-11-29T15:59:37.627Z,78311.97
2022-11-29T16:02:19.415Z,78321.91
2022-11-29T16:04:47.503Z,78319.91
2022-11-29T16:07:14.796Z,78321.91
2022-11-29T16:09:47.770Z,78323.91
2022-11-29T16:12:17.189Z,78325.88
2022-11-29T16:14:58.048Z,78321.91
2022-11-29T16:17:30.643Z,78315.94
2022-11-29T16:20:06.253Z,78331.84
2022-11-29T16:22:32.678Z,78339.81
2022-11-29T16:25:05.716Z,78323.91
2022-11-29T16:27:35.014Z,78323.91
2022-11-29T16:30:02.313Z,78343.78
2022-11-29T16:32:35.102Z,78339.81
2022-11-29T16:35:24.243Z,78345.75
2022-11-29T16:37:50.993Z,78339.81
2022-11-29T16:40:23.519Z,78341.78
2022-11-29T16:43:23.897Z,78361.66
2022-11-29T16:46:30.490Z,78355.72
2022-11-29T16:49:00.977Z,78359.69
2022-11-29T16:51:37.615Z,78351.72
2022-11-29T16:54:30.339Z,78373.59
2022-11-29T16:56:57.199Z,78359.69
2022-11-29T16:59:28.108Z,78359.69
2022-11-29T17:01:56.343Z,78361.66
2022-11-29T17:04:24.041Z,78351.72
2022-11-29T17:06:51.610Z,78367.63
2022-11-29T17:09:30.694Z,78353.72
2022-11-29T17:12:01.089Z,78357.69
2022-11-29T17:14:29.020Z,78359.69
2022-11-29T17:16:55.568Z,78377.56
2022-11-29T17:19:23.597Z,78365.66
2022-11-29T17:21:51.206Z,78373.59
2022-11-29T17:24:20.024Z,78369.63
2022-11-29T17:26:46.664Z,78369.63
2022-11-29T17:29:14.903Z,78379.56
2022-11-29T17:31:44.101Z,78385.53
2022-11-29T17:34:10.965Z,78381.56
2022-11-29T17:36:37.799Z,78387.53
2022-11-29T17:39:04.999Z,78385.53
2022-11-29T17:41:33.011Z,78397.47
2022-11-29T17:44:00.438Z,78405.41
2022-11-29T17:46:29.671Z,78411.38
2022-11-29T17:48:58.203Z,78401.44
2022-11-29T17:54:12.340Z,78391.50
2022-11-29T17:56:38.737Z,78399.44
2022-11-29T17:59:05.686Z,78397.47
2022-11-29T18:01:34.728Z,78405.41
2022-11-29T18:04:03.012Z,78413.38
2022-11-29T18:06:34.250Z,78407.41
2022-11-29T18:09:01.509Z,78403.44
2022-11-29T18:11:41.667Z,78403.44
2022-11-29T18:14:13.155Z,78419.31
2022-11-29T18:16:39.640Z,78399.44
2022-11-29T18:19:09.214Z,78417.34
2022-11-29T18:21:36.486Z,78409.38
2022-11-29T18:24:04.758Z,78417.34
2022-11-29T18:26:32.839Z,78417.34
2022-11-29T18:28:59.735Z,78405.41
2022-11-29T18:31:29.219Z,78411.38
2022-11-29T18:33:58.385Z,78415.34
2022-11-29T18:36:28.815Z,78409.38
2022-11-29T18:39:04.773Z,78439.22
2022-11-29T18:41:31.809Z,78427.28
2022-11-29T18:44:01.492Z,78427.28
2022-11-29T18:46:32.383Z,78427.28
2022-11-29T18:49:01.315Z,78419.31
2022-11-29T18:51:29.800Z,78439.22
2022-11-29T18:53:57.313Z,78423.31
2022-11-29T18:56:26.145Z,78435.25
2022-11-29T18:58:58.631Z,78423.31
2022-11-29T19:01:28.003Z,78423.31
2022-11-29T19:03:56.982Z,78427.28
2022-11-29T19:06:32.815Z,78435.25
2022-11-29T19:09:04.719Z,78439.22
2022-11-29T19:11:33.273Z,78437.22
2022-11-29T19:14:05.945Z,78437.22
2022-11-29T19:16:34.392Z,78443.19
2022-11-29T19:19:01.911Z,78427.28
2022-11-29T19:21:31.717Z,78425.28
2022-11-29T19:24:00.228Z,78447.16
2022-11-29T19:26:28.774Z,78435.25
2022-11-29T19:28:56.055Z,78455.13
2022-11-29T19:31:25.022Z,78441.19
2022-11-29T19:33:52.516Z,78449.16
2022-11-29T19:36:28.220Z,78429.28
2022-11-29T19:38:55.024Z,78445.19
2022-11-29T19:41:26.535Z,78471.03
2022-11-29T19:43:53.670Z,78459.09
2022-11-29T19:46:23.462Z,78451.16
2022-11-29T19:48:52.547Z,78453.13
2022-11-29T19:51:19.867Z,78447.16
2022-11-29T19:53:47.383Z,78443.19
2022-11-29T19:56:16.440Z,78449.16
2022-11-29T19:58:43.842Z,78453.13
2022-11-29T20:01:13.700Z,78457.09
2022-11-29T20:03:40.924Z,78461.09
2022-11-29T20:06:08.774Z,78463.06
2022-11-29T20:08:36.066Z,78473.00
2022-11-29T20:11:07.441Z,78477.00
2022-11-29T20:13:33.943Z,78484.94
2022-11-29T20:16:09.822Z,78471.03
2022-11-29T20:18:38.395Z,78477.00
2022-11-29T20:21:07.352Z,78467.06
2022-11-29T20:23:34.244Z,78465.06
2022-11-29T20:26:01.433Z,78463.06
2022-11-29T20:28:28.323Z,78480.97
2022-11-29T20:30:55.000Z,78486.94
2022-11-29T20:33:24.542Z,78478.97
2022-11-29T20:36:00.925Z,78473.00
2022-11-29T20:38:36.894Z,78469.03
2022-11-29T20:41:14.988Z,78463.06
2022-11-29T20:43:50.249Z,78473.00
2022-11-29T20:46:16.858Z,78484.94
2022-11-29T20:48:43.547Z,78475.00
2022-11-29T20:51:10.626Z,78478.97
2022-11-29T20:53:40.851Z,78475.00
2022-11-29T20:56:09.638Z,78475.00
2022-11-29T20:58:36.510Z,78478.97
2022-11-29T21:01:04.149Z,78477.00
2022-11-29T21:03:30.836Z,78494.88
2022-11-29T21:05:57.809Z,78477.00
2022-11-29T21:08:26.524Z,78478.97
2022-11-29T21:10:53.861Z,78480.97
2022-11-29T21:13:21.900Z,78480.97
2022-11-29T21:15:49.077Z,78478.97
2022-11-29T21:18:25.834Z,78471.03
2022-11-29T21:21:12.258Z,78475.00
2022-11-29T21:24:10.601Z,78475.00
2022-11-29T21:26:47.039Z,78488.91
2022-11-29T21:29:19.216Z,78482.94
2022-11-29T21:31:47.650Z,78486.94
2022-11-29T21:34:14.112Z,78490.91
2022-11-29T21:36:41.121Z,78478.97
2022-11-29T21:39:12.513Z,78494.88
2022-11-29T21:41:39.467Z,78490.91
2022-11-29T21:44:07.728Z,78482.94
2022-11-29T21:46:34.865Z,78484.94
2022-11-29T21:49:01.345Z,78502.84
2022-11-29T21:51:27.704Z,78510.78
2022-11-29T21:53:54.244Z,78498.88
2022-11-29T21:56:20.684Z,78502.84
2022-11-29T21:58:47.152Z,78494.88
2022-11-29T22:01:17.379Z,78490.91
2022-11-29T22:03:44.314Z,78502.84
2022-11-29T22:06:12.977Z,78498.88
2022-11-29T22:08:41.258Z,78496.88
2022-11-29T22:11:10.462Z,78502.84
2022-11-29T22:13:57.764Z,78530.69
2022-11-29T22:16:24.409Z,78516.75
2022-11-29T22:18:51.372Z,78526.69
2022-11-29T22:21:17.790Z,78522.72
2022-11-29T22:23:44.305Z,78514.78
2022-11-29T22:26:10.842Z,78520.72
2022-11-29T22:28:37.411Z,78536.63
2022-11-29T22:31:09.327Z,78528.69
2022-11-29T22:33:35.909Z,78528.69
2022-11-29T22:36:10.293Z,78536.63
2022-11-29T22:38:37.473Z,78552.53
2022-11-29T22:41:07.077Z,78556.53
2022-11-29T22:43:33.776Z,78544.59
2022-11-29T22:46:08.801Z,78544.59
2022-11-29T22:48:38.928Z,78530.69
2022-11-29T22:51:17.000Z,78528.69
2022-11-29T22:53:48.861Z,78512.78
2022-11-29T22:56:15.563Z,78518.75
2022-11-29T22:58:42.136Z,78514.78
2022-11-29T23:01:17.801Z,78514.78
2022-11-29T23:03:51.662Z,78526.69
2022-11-29T23:06:20.194Z,78526.69
2022-11-29T23:08:48.053Z,78540.63
2022-11-29T23:11:21.102Z,78548.56
2022-11-29T23:13:47.715Z,78534.66
2022-11-29T23:16:18.154Z,78544.59
2022-11-29T23:18:45.719Z,78544.59
2022-11-29T23:21:18.357Z,78546.59
2022-11-29T23:23:44.923Z,78556.53
2022-11-29T23:26:33.901Z,78570.44
2022-11-29T23:29:00.568Z,78556.53
2022-11-29T23:31:27.200Z,78568.44
2022-11-29T23:33:54.097Z,78566.47
2022-11-29T23:36:20.953Z,78574.41
2022-11-29T23:38:47.672Z,78566.47
2022-11-29T23:41:14.400Z,78560.50
2022-11-29T23:43:41.991Z,78570.44
2022-11-29T23:46:12.938Z,78578.41
2022-11-29T23:48:39.547Z,78584.34
2022-11-29T23:51:05.995Z,78586.34
2022-11-29T23:53:32.886Z,78586.34
2022-11-29T23:56:01.607Z,78582.38
2022-11-29T23:58:29.389Z,78576.41
